Time,TemperatureF,DewpointF,PressureIn,WindDirection,WindDirectionDegrees,WindSpeedMPH,WindSpeedGustMPH,Humidity,HourlyPrecipIn,Conditions,Clouds,dailyrainin,SolarRadiationWatts/m^2,SoftwareType,DateUTC
2013-03-09 00:00:00,37.7,19.2,30.07,WNW,293,8.0,30.0,47,0.00,,,0.00,0000,Weather View 32 v70,2013-03-09 05:00:00,
2013-03-09 00:05:00,37.7,19.7,30.07,NNW,338,14.0,30.0,48,0.00,,,0.00,0000,Weather View 32 v70,2013-03-09 05:05:00,
2013-03-09 00:10:00,37.7,19.7,30.08,North,0,0.0,30.0,48,0.00,,,0.00,0008,Weather View 32 v70,2013-03-09 05:10:00,
2013-03-09 00:14:00,37.7,19.7,30.08,North,0,0.0,30.0,48,0.00,,,0.00,0008,Weather View 32 v70,2013-03-09 05:14:00,
2013-03-09 00:20:00,37.5,18.6,30.07,North,0,4.0,30.0,46,0.00,,,0.00,0008,Weather View 32 v70,2013-03-09 05:20:00,
2013-03-09 00:25:00,37.7,18.2,30.07,NNE,23,4.0,30.0,45,0.00,,,0.00,0000,Weather View 32 v70,2013-03-09 05:25:00,
2013-03-09 00:30:00,37.7,19.2,30.08,NNW,338,2.0,30.0,47,0.00,,,0.00,0000,Weather View 32 v70,2013-03-09 05:30:00,
2013-03-09 00:35:00,37.7,18.2,30.08,NW,315,4.0,30.0,45,0.00,,,0.00,0000,Weather View 32 v70,2013-03-09 05:35:00,
2013-03-09 00:40:00,38.0,18.5,30.08,NNW,338,11.0,30.0,45,0.00,,,0.00,0000,Weather View 32 v70,2013-03-09 05:40:00,
2013-03-09 00:50:00,37.7,18.7,30.08,ENE,68,8.0,30.0,46,0.00,,,0.00,0000,Weather View 32 v70,2013-03-09 05:50:00,
2013-03-09 00:55:00,37.4,19.0,30.08,WNW,293,7.0,30.0,47,0.00,,,0.00,0000,Weather View 32 v70,2013-03-09 05:55:00,
2013-03-09 01:00:00,37.7,19.7,30.08,North,0,9.0,30.0,48,0.00,,,0.00,0000,Weather View 32 v70,2013-03-09 06:00:00,
2013-03-09 01:10:00,37.7,18.2,30.08,North,0,5.0,22.0,45,0.00,,,0.00,0000,Weather View 32 v70,2013-03-09 06:10:00,
2013-03-09 01:15:00,37.5,18.6,30.08,North,0,10.0,22.0,46,0.00,,,0.00,0000,Weather View 32 v70,2013-03-09 06:15:00,
2013-03-09 01:25:00,37.7,18.2,30.08,NNW,338,6.0,22.0,45,0.00,,,0.00,0008,Weather View 32 v70,2013-03-09 06:25:00,
2013-03-09 01:30:00,37.4,18.0,30.08,NNW,338,3.0,22.0,45,0.00,,,0.00,0008,Weather View 32 v70,2013-03-09 06:30:00,
2013-03-09 01:40:00,37.1,18.7,30.08,NNW,338,4.0,22.0,47,0.00,,,0.00,0000,Weather View 32 v70,2013-03-09 06:40:00,
2013-03-09 01:45:00,37.0,18.1,30.09,North,0,3.0,29.0,46,0.00,,,0.00,0000,Weather View 32 v70,2013-03-09 06:45:00,
2013-03-09 01:55:00,37.2,18.8,30.09,North,0,4.0,29.0,47,0.00,,,0.00,0000,Weather View 32 v70,2013-03-09 06:55:00,
2013-03-09 02:00:00,37.2,17.8,30.09,North,0,6.0,29.0,45,0.00,,,0.00,0000,Weather View 32 v70,2013-03-09 07:00:00,
2013-03-09 02:10:00,36.9,17.0,30.08,North,0,10.0,29.0,44,0.00,,,0.00,0000,Weather View 32 v70,2013-03-09 07:10:00,
2013-03-09 02:15:00,36.6,17.8,30.08,NNW,338,4.0,29.0,46,0.00,,,0.00,0000,Weather View 32 v70,2013-03-09 07:15:00,
2013-03-09 02:25:00,36.4,17.1,30.08,NE,45,15.0,29.0,45,0.00,,,0.00,0000,Weather View 32 v70,2013-03-09 07:25:00,
2013-03-09 02:30:00,36.4,16.6,30.08,North,0,8.0,29.0,44,0.00,,,0.00,0000,Weather View 32 v70,2013-03-09 07:30:00,
2013-03-09 02:35:00,36.8,16.3,30.08,NNW,338,10.0,29.0,43,0.00,,,0.00,0008,Weather View 32 v70,2013-03-09 07:35:00,
2013-03-09 02:45:00,36.8,17.4,30.08,NNE,23,5.0,30.0,45,0.00,,,0.00,0000,Weather View 32 v70,2013-03-09 07:45:00,
2013-03-09 02:50:00,36.5,16.7,30.08,NNW,338,3.0,30.0,44,0.00,,,0.00,0000,Weather View 32 v70,2013-03-09 07:50:00,
2013-03-09 03:00:00,36.4,16.6,30.08,NNW,338,2.0,30.0,44,0.00,,,0.00,0000,Weather View 32 v70,2013-03-09 08:00:00,
2013-03-09 03:10:00,36.1,16.8,30.08,NNW,338,8.0,30.0,45,0.00,,,0.00,0000,Weather View 32 v70,2013-03-09 08:10:00,
2013-03-09 03:15:00,36.0,17.7,30.08,North,0,3.0,30.0,47,0.00,,,0.00,0000,Weather View 32 v70,2013-03-09 08:15:00,
2013-03-09 03:20:00,35.9,17.1,30.08,NNW,338,5.0,30.0,46,0.00,,,0.00,0000,Weather View 32 v70,2013-03-09 08:20:00,
2013-03-09 03:25:00,35.9,16.6,30.08,NE,45,7.0,30.0,45,0.00,,,0.00,0008,Weather View 32 v70,2013-03-09 08:25:00,
2013-03-09 03:30:00,35.9,17.6,30.08,NNW,338,4.0,30.0,47,0.00,,,0.00,0000,Weather View 32 v70,2013-03-09 08:30:00,
2013-03-09 03:35:00,35.7,17.5,30.08,North,0,2.0,30.0,47,0.00,,,0.00,0008,Weather View 32 v70,2013-03-09 08:35:00,
2013-03-09 03:40:00,35.7,17.0,30.08,North,0,6.0,30.0,46,0.00,,,0.00,0000,Weather View 32 v70,2013-03-09 08:40:00,
2013-03-09 03:50:00,35.5,17.3,30.08,North,0,4.0,17.0,47,0.00,,,0.00,0000,Weather View 32 v70,2013-03-09 08:50:00,
2013-03-09 03:55:00,35.9,16.0,30.09,North,0,12.0,18.0,44,0.00,,,0.00,0000,Weather View 32 v70,2013-03-09 08:55:00,
2013-03-09 04:00:00,35.7,16.5,30.09,North,0,3.0,18.0,45,0.00,,,0.00,0008,Weather View 32 v70,2013-03-09 09:00:00,
2013-03-09 04:05:00,35.5,16.3,30.09,North,0,0.0,18.0,45,0.00,,,0.00,0000,Weather View 32 v70,2013-03-09 09:05:00,
2013-03-09 04:15:00,35.3,17.1,30.09,NNW,338,0.0,18.0,47,0.00,,,0.00,0000,Weather View 32 v70,2013-03-09 09:15:00,
2013-03-09 04:20:00,35.3,16.0,30.09,North,0,4.0,18.0,45,0.00,,,0.00,0000,Weather View 32 v70,2013-03-09 09:20:00,
2013-03-09 04:25:00,35.1,16.9,30.09,NNW,338,4.0,18.0,47,0.00,,,0.00,0008,Weather View 32 v70,2013-03-09 09:25:00,
2013-03-09 04:30:00,35.1,15.8,30.10,NNW,338,3.0,18.0,45,0.00,,,0.00,0008,Weather View 32 v70,2013-03-09 09:30:00,
2013-03-09 04:40:00,35.0,15.7,30.10,North,0,4.0,18.0,45,0.00,,,0.00,0000,Weather View 32 v70,2013-03-09 09:40:00,
2013-03-09 04:45:00,35.1,15.8,30.10,North,0,4.0,18.0,45,0.00,,,0.00,0008,Weather View 32 v70,2013-03-09 09:45:00,
2013-03-09 04:55:00,34.8,17.6,30.11,NE,45,0.0,16.0,49,0.00,,,0.00,0000,Weather View 32 v70,2013-03-09 09:55:00,
2013-03-09 05:00:00,34.5,16.8,30.11,NNW,338,1.0,16.0,48,0.00,,,0.00,0000,Weather View 32 v70,2013-03-09 10:00:00,
2013-03-09 05:10:00,34.8,15.6,30.11,NNW,338,2.0,16.0,45,0.00,,,0.00,0000,Weather View 32 v70,2013-03-09 10:10:00,
2013-03-09 05:15:00,34.8,16.6,30.11,North,0,0.0,16.0,47,0.00,,,0.00,0000,Weather View 32 v70,2013-03-09 10:15:00,
2013-03-09 05:20:00,34.4,16.2,30.11,North,0,4.0,16.0,47,0.00,,,0.00,0008,Weather View 32 v70,2013-03-09 10:20:00,
2013-03-09 05:25:00,34.5,15.3,30.12,North,0,2.0,16.0,45,0.00,,,0.00,0016,Weather View 32 v70,2013-03-09 10:25:00,
2013-03-09 05:30:00,34.6,15.9,30.12,North,0,3.0,16.0,46,0.00,,,0.00,0000,Weather View 32 v70,2013-03-09 10:30:00,
2013-03-09 05:40:00,34.3,16.6,30.12,North,0,0.0,16.0,48,0.00,,,0.00,0008,Weather View 32 v70,2013-03-09 10:40:00,
2013-03-09 05:45:00,34.2,15.5,30.12,NNE,23,3.0,16.0,46,0.00,,,0.00,0000,Weather View 32 v70,2013-03-09 10:45:00,
2013-03-09 05:55:00,34.2,16.5,30.12,NNW,338,8.0,16.0,48,0.00,,,0.00,0000,Weather View 32 v70,2013-03-09 10:55:00,
2013-03-09 06:05:00,34.3,16.1,30.13,NNW,338,6.0,16.0,47,0.00,,,0.00,0008,Weather View 32 v70,2013-03-09 11:05:00,
2013-03-09 06:15:00,33.8,17.1,30.13,NNE,23,3.0,13.0,50,0.00,,,0.00,0000,Weather View 32 v70,2013-03-09 11:15:00,
2013-03-09 06:25:00,33.7,16.6,30.13,NNW,338,7.0,16.0,49,0.00,,,0.00,0000,Weather View 32 v70,2013-03-09 11:25:00,
2013-03-09 06:30:00,33.9,16.8,30.14,NNE,23,3.0,16.0,49,0.00,,,0.00,0024,Weather View 32 v70,2013-03-09 11:30:00,
2013-03-09 06:35:00,33.8,17.1,30.14,NNW,338,4.0,16.0,50,0.00,,,0.00,0008,Weather View 32 v70,2013-03-09 11:35:00,
2013-03-09 06:45:00,33.9,17.2,30.14,NNE,23,3.0,16.0,50,0.00,,,0.00,0064,Weather View 32 v70,2013-03-09 11:45:00,
2013-03-09 06:50:00,34.2,17.5,30.14,NNE,23,0.0,16.0,50,0.00,,,0.00,0104,Weather View 32 v70,2013-03-09 11:50:00,
2013-03-09 06:55:00,34.3,17.5,30.14,North,0,0.0,16.0,50,0.00,,,0.00,0080,Weather View 32 v70,2013-03-09 11:55:00,
2013-03-09 07:05:00,34.4,17.7,30.15,NNW,338,4.0,16.0,50,0.00,,,0.00,0096,Weather View 32 v70,2013-03-09 12:05:00,
2013-03-09 07:15:00,34.7,18.0,30.16,NE,45,4.0,17.0,50,0.00,,,0.00,0136,Weather View 32 v70,2013-03-09 12:15:00,
2013-03-09 07:20:00,34.8,17.6,30.16,North,0,0.0,17.0,49,0.00,,,0.00,0168,Weather View 32 v70,2013-03-09 12:20:00,
2013-03-09 07:30:00,35.2,17.9,30.16,North,0,3.0,17.0,49,0.00,,,0.00,0192,Weather View 32 v70,2013-03-09 12:30:00,
2013-03-09 07:35:00,35.4,17.6,30.16,North,0,10.0,17.0,48,0.00,,,0.00,0192,Weather View 32 v70,2013-03-09 12:35:00,
2013-03-09 07:40:00,35.6,18.8,30.17,North,0,2.0,17.0,50,0.00,,,0.00,0232,Weather View 32 v70,2013-03-09 12:40:00,
2013-03-09 07:45:00,36.0,18.6,30.18,North,0,1.0,19.0,49,0.00,,,0.00,0208,Weather View 32 v70,2013-03-09 12:45:00,
2013-03-09 07:50:00,36.2,18.8,30.17,NNW,338,0.0,19.0,49,0.00,,,0.00,0256,Weather View 32 v70,2013-03-09 12:50:00,
2013-03-09 07:55:00,36.4,18.1,30.17,North,0,2.0,19.0,47,0.00,,,0.00,0272,Weather View 32 v70,2013-03-09 12:55:00,
2013-03-09 08:00:00,36.5,18.2,30.18,NW,315,5.0,19.0,47,0.00,,,0.00,0272,Weather View 32 v70,2013-03-09 13:00:00,
2013-03-09 08:10:00,37.5,19.1,30.17,NNW,338,4.0,19.0,47,0.00,,,0.00,0304,Weather View 32 v70,2013-03-09 13:10:00,
2013-03-09 08:19:00,37.7,18.7,30.17,North,0,3.0,19.0,46,0.00,,,0.00,0304,Weather View 32 v70,2013-03-09 13:19:00,
2013-03-09 08:25:00,38.1,17.6,30.17,NNE,23,3.0,19.0,43,0.00,,,0.00,0320,Weather View 32 v70,2013-03-09 13:25:00,
2013-03-09 08:30:00,38.2,17.7,30.17,ENE,68,0.0,19.0,43,0.00,,,0.00,0360,Weather View 32 v70,2013-03-09 13:30:00,
2013-03-09 08:40:00,39.0,17.8,30.17,North,0,10.0,19.0,42,0.00,,,0.00,0392,Weather View 32 v70,2013-03-09 13:40:00,
2013-03-09 08:45:00,39.5,17.7,30.17,North,0,0.0,17.0,41,0.00,,,0.00,0368,Weather View 32 v70,2013-03-09 13:45:00,
2013-03-09 08:50:00,40.0,18.7,30.17,NNW,338,2.0,17.0,42,0.00,,,0.00,0408,Weather View 32 v70,2013-03-09 13:50:00,
2013-03-09 08:55:00,40.1,17.1,30.17,North,0,6.0,17.0,39,0.00,,,0.00,0416,Weather View 32 v70,2013-03-09 13:55:00,
2013-03-09 09:00:00,40.5,18.0,30.18,NNE,23,3.0,17.0,40,0.00,,,0.00,0416,Weather View 32 v70,2013-03-09 14:00:00,
2013-03-09 09:10:00,41.0,18.5,30.17,NW,315,1.0,17.0,40,0.00,,,0.00,0432,Weather View 32 v70,2013-03-09 14:10:00,
2013-03-09 09:19:00,41.3,18.7,30.17,ENE,68,0.0,17.0,40,0.00,,,0.00,0480,Weather View 32 v70,2013-03-09 14:19:00,
2013-03-09 09:25:00,42.4,18.5,30.17,ENE,68,3.0,17.0,38,0.00,,,0.00,0480,Weather View 32 v70,2013-03-09 14:25:00,
2013-03-09 09:30:00,42.2,18.9,30.17,North,0,3.0,17.0,39,0.00,,,0.00,0496,Weather View 32 v70,2013-03-09 14:30:00,
2013-03-09 09:35:00,42.3,17.2,30.18,NNE,23,3.0,16.0,36,0.00,,,0.00,0520,Weather View 32 v70,2013-03-09 14:35:00,
2013-03-09 09:40:00,42.2,19.5,30.18,NNW,338,4.0,16.0,40,0.00,,,0.00,0512,Weather View 32 v70,2013-03-09 14:40:00,
2013-03-09 09:45:00,42.2,17.1,30.18,North,0,5.0,16.0,36,0.00,,,0.00,0520,Weather View 32 v70,2013-03-09 14:45:00,
2013-03-09 09:55:00,43.5,22.5,30.18,North,0,3.0,16.0,43,0.00,,,0.00,0544,Weather View 32 v70,2013-03-09 14:55:00,
2013-03-09 10:00:00,44.2,21.9,30.18,North,0,1.0,16.0,41,0.00,,,0.00,0544,Weather View 32 v70,2013-03-09 15:00:00,
2013-03-09 10:05:00,44.9,20.1,30.18,NNE,23,0.0,16.0,37,0.00,,,0.00,0560,Weather View 32 v70,2013-03-09 15:05:00,
2013-03-09 10:15:00,45.1,17.6,30.18,NNW,338,0.0,16.0,33,0.00,,,0.00,0576,Weather View 32 v70,2013-03-09 15:15:00,
2013-03-09 10:20:00,45.1,17.6,30.19,North,0,6.0,16.0,33,0.00,,,0.00,0568,Weather View 32 v70,2013-03-09 15:20:00,
2013-03-09 10:30:00,45.0,18.2,30.19,NNE,23,1.0,16.0,34,0.00,,,0.00,0600,Weather View 32 v70,2013-03-09 15:30:00,
2013-03-09 10:40:00,45.4,17.2,30.19,NNW,338,5.0,14.0,32,0.00,,,0.00,0592,Weather View 32 v70,2013-03-09 15:40:00,
2013-03-09 10:50:00,46.1,18.5,30.19,NE,45,0.0,14.0,33,0.00,,,0.00,0632,Weather View 32 v70,2013-03-09 15:50:00,
2013-03-09 10:55:00,46.1,19.2,30.19,NE,45,2.0,14.0,34,0.00,,,0.00,0640,Weather View 32 v70,2013-03-09 15:55:00,
2013-03-09 11:00:00,45.5,16.6,30.18,NNE,23,2.0,19.0,31,0.00,,,0.00,0640,Weather View 32 v70,2013-03-09 16:00:00,
2013-03-09 11:05:00,46.0,17.7,30.19,North,0,4.0,19.0,32,0.00,,,0.00,0640,Weather View 32 v70,2013-03-09 16:05:00,
2013-03-09 11:10:00,46.8,21.2,30.19,North,0,6.0,19.0,36,0.00,,,0.00,0664,Weather View 32 v70,2013-03-09 16:10:00,
2013-03-09 11:15:00,46.9,19.9,30.19,NE,45,2.0,19.0,34,0.00,,,0.00,0656,Weather View 32 v70,2013-03-09 16:15:00,
2013-03-09 11:21:00,46.9,20.6,30.19,NNE,23,0.0,19.0,35,0.00,,,0.00,0640,Weather View 32 v70,2013-03-09 16:21:00,
2013-03-09 11:30:00,46.8,17.7,30.19,North,0,3.0,19.0,31,0.00,,,0.00,0640,Weather View 32 v70,2013-03-09 16:30:00,
2013-03-09 11:35:00,47.3,20.3,30.20,NNW,338,0.0,19.0,34,0.00,,,0.00,0656,Weather View 32 v70,2013-03-09 16:35:00,
2013-03-09 11:40:00,48.0,19.5,30.20,North,0,5.0,19.0,32,0.00,,,0.00,0656,Weather View 32 v70,2013-03-09 16:40:00,
2013-03-09 11:50:00,48.6,20.0,30.19,NNW,338,0.0,19.0,32,0.00,,,0.00,0640,Weather View 32 v70,2013-03-09 16:50:00,
2013-03-09 11:55:00,48.9,18.8,30.19,SSW,203,1.0,19.0,30,0.00,,,0.00,0632,Weather View 32 v70,2013-03-09 16:55:00,
2013-03-09 12:00:00,48.6,18.5,30.19,WNW,293,7.0,19.0,30,0.00,,,0.00,0648,Weather View 32 v70,2013-03-09 17:00:00,
2013-03-09 12:05:00,48.8,17.9,30.20,NNE,23,3.0,15.0,29,0.00,,,0.00,0648,Weather View 32 v70,2013-03-09 17:05:00,
2013-03-09 12:10:00,48.9,19.5,30.20,NNW,338,2.0,15.0,31,0.00,,,0.00,0672,Weather View 32 v70,2013-03-09 17:10:00,
2013-03-09 12:15:00,49.9,19.7,30.19,North,0,2.0,15.0,30,0.00,,,0.00,0648,Weather View 32 v70,2013-03-09 17:15:00,
2013-03-09 12:20:00,48.9,18.0,30.19,NNE,23,6.0,18.0,29,0.00,,,0.00,0632,Weather View 32 v70,2013-03-09 17:20:00,
2013-03-09 12:30:00,49.8,17.9,30.19,North,0,2.0,18.0,28,0.00,,,0.00,0664,Weather View 32 v70,2013-03-09 17:30:00,
2013-03-09 12:35:00,49.7,17.9,30.19,NNW,338,5.0,18.0,28,0.00,,,0.00,0656,Weather View 32 v70,2013-03-09 17:35:00,
2013-03-09 12:45:00,50.9,21.3,30.18,NNE,23,0.0,18.0,31,0.00,,,0.00,0648,Weather View 32 v70,2013-03-09 17:45:00,
2013-03-09 12:50:00,50.3,17.5,30.19,West,270,4.0,18.0,27,0.00,,,0.00,0632,Weather View 32 v70,2013-03-09 17:50:00,
2013-03-09 12:55:00,50.6,19.5,30.19,NNE,23,6.0,18.0,29,0.00,,,0.00,0616,Weather View 32 v70,2013-03-09 17:55:00,
2013-03-09 13:00:00,50.9,18.1,30.19,NNW,338,8.0,18.0,27,0.00,,,0.00,0624,Weather View 32 v70,2013-03-09 18:00:00,
2013-03-09 13:05:00,50.9,18.1,30.19,NNE,23,9.0,18.0,27,0.00,,,0.00,0608,Weather View 32 v70,2013-03-09 18:05:00,
2013-03-09 13:15:00,51.5,17.7,30.18,NNW,338,8.0,18.0,26,0.00,,,0.00,0616,Weather View 32 v70,2013-03-09 18:15:00,
2013-03-09 13:20:00,51.6,16.9,30.19,NNE,23,7.0,16.0,25,0.00,,,0.00,0592,Weather View 32 v70,2013-03-09 18:20:00,
2013-03-09 13:30:00,52.1,19.0,30.18,NNE,23,4.0,16.0,27,0.00,,,0.00,0584,Weather View 32 v70,2013-03-09 18:30:00,
2013-03-09 13:35:00,52.4,18.4,30.18,NNE,23,4.0,16.0,26,0.00,,,0.00,0560,Weather View 32 v70,2013-03-09 18:35:00,
2013-03-09 13:45:00,51.8,15.1,30.19,NNE,23,3.0,16.0,23,0.00,,,0.00,0544,Weather View 32 v70,2013-03-09 18:45:00,
2013-03-09 13:55:00,51.6,17.8,30.19,NW,315,0.0,18.0,26,0.00,,,0.00,0512,Weather View 32 v70,2013-03-09 18:55:00,
2013-03-09 14:00:00,52.5,16.7,30.18,NNE,23,2.0,18.0,24,0.00,,,0.00,0512,Weather View 32 v70,2013-03-09 19:00:00,
2013-03-09 14:10:00,52.7,16.9,30.18,ENE,68,2.0,18.0,24,0.00,,,0.00,0520,Weather View 32 v70,2013-03-09 19:10:00,
2013-03-09 14:20:00,52.5,17.6,30.18,NW,315,6.0,18.0,25,0.00,,,0.00,0504,Weather View 32 v70,2013-03-09 19:20:00,
2013-03-09 14:30:00,52.3,19.2,30.18,NNW,338,2.0,18.0,27,0.00,,,0.00,0464,Weather View 32 v70,2013-03-09 19:30:00,
2013-03-09 14:35:00,52.1,17.2,30.18,North,0,2.0,18.0,25,0.00,,,0.00,0472,Weather View 32 v70,2013-03-09 19:35:00,
2013-03-09 14:40:00,51.7,18.8,30.18,North,0,4.0,18.0,27,0.00,,,0.00,0440,Weather View 32 v70,2013-03-09 19:40:00,
2013-03-09 14:50:00,51.4,18.5,30.18,NNW,338,3.0,18.0,27,0.00,,,0.00,0416,Weather View 32 v70,2013-03-09 19:50:00,
2013-03-09 15:00:00,51.3,20.0,30.18,ENE,68,8.0,14.0,29,0.00,,,0.00,0408,Weather View 32 v70,2013-03-09 20:00:00,
2013-03-09 15:05:00,51.2,18.3,30.18,North,0,3.0,14.0,27,0.00,,,0.00,0400,Weather View 32 v70,2013-03-09 20:05:00,
2013-03-09 15:10:00,50.8,18.8,30.18,NE,45,5.0,13.0,28,0.00,,,0.00,0344,Weather View 32 v70,2013-03-09 20:10:00,
2013-03-09 15:20:00,50.6,20.2,30.18,East,90,1.0,13.0,30,0.00,,,0.00,0336,Weather View 32 v70,2013-03-09 20:20:00,
2013-03-09 15:30:00,50.1,17.4,30.18,North,0,1.0,13.0,27,0.00,,,0.00,0312,Weather View 32 v70,2013-03-09 20:30:00,
2013-03-09 15:35:00,49.9,20.4,30.18,North,0,0.0,13.0,31,0.00,,,0.00,0304,Weather View 32 v70,2013-03-09 20:35:00,
2013-03-09 15:40:00,49.8,20.3,30.19,NNE,23,0.0,13.0,31,0.00,,,0.00,0272,Weather View 32 v70,2013-03-09 20:40:00,
2013-03-09 15:50:00,49.5,18.5,30.19,ENE,68,0.0,13.0,29,0.00,,,0.00,0240,Weather View 32 v70,2013-03-09 20:50:00,
2013-03-09 15:55:00,49.0,18.9,30.19,ENE,68,3.0,13.0,30,0.00,,,0.00,0208,Weather View 32 v70,2013-03-09 20:55:00,
2013-03-09 16:00:00,49.0,18.9,30.19,North,0,2.0,13.0,30,0.00,,,0.00,0232,Weather View 32 v70,2013-03-09 21:00:00,
2013-03-09 16:05:00,48.7,18.6,30.20,ENE,68,0.0,17.0,30,0.00,,,0.00,0200,Weather View 32 v70,2013-03-09 21:05:00,
2013-03-09 16:15:00,48.2,20.4,30.20,East,90,0.0,17.0,33,0.00,,,0.00,0176,Weather View 32 v70,2013-03-09 21:15:00,
2013-03-09 16:20:00,47.9,19.4,30.20,ENE,68,0.0,17.0,32,0.00,,,0.00,0184,Weather View 32 v70,2013-03-09 21:20:00,
2013-03-09 16:30:00,47.6,19.1,30.21,North,0,1.0,17.0,32,0.00,,,0.00,0128,Weather View 32 v70,2013-03-09 21:30:00,
2013-03-09 16:40:00,47.2,19.5,30.21,ENE,68,0.0,17.0,33,0.00,,,0.00,0064,Weather View 32 v70,2013-03-09 21:40:00,
2013-03-09 16:50:00,46.5,21.0,30.21,North,0,0.0,17.0,36,0.00,,,0.00,0056,Weather View 32 v70,2013-03-09 21:50:00,
2013-03-09 16:55:00,46.1,21.2,30.22,NNE,23,0.0,17.0,37,0.00,,,0.00,0064,Weather View 32 v70,2013-03-09 21:55:00,
2013-03-09 17:00:00,45.8,21.6,30.22,North,0,0.0,17.0,38,0.00,,,0.00,0048,Weather View 32 v70,2013-03-09 22:00:00,
2013-03-09 17:05:00,45.5,22.0,30.22,North,0,0.0,10.0,39,0.00,,,0.00,0016,Weather View 32 v70,2013-03-09 22:05:00,
2013-03-09 17:10:00,45.1,22.7,30.22,NNE,23,0.0,10.0,41,0.00,,,0.00,0024,Weather View 32 v70,2013-03-09 22:10:00,
2013-03-09 17:20:00,43.8,23.3,30.23,ENE,68,0.0,7.0,44,0.00,,,0.00,0008,Weather View 32 v70,2013-03-09 22:20:00,
2013-03-09 17:30:00,42.8,24.0,30.23,NNE,23,1.0,6.0,47,0.00,,,0.00,0008,Weather View 32 v70,2013-03-09 22:30:00,
2013-03-09 17:40:00,41.9,24.6,30.24,NNE,23,1.0,7.0,50,0.00,,,0.00,0000,Weather View 32 v70,2013-03-09 22:40:00,
2013-03-09 17:45:00,41.5,24.7,30.24,ENE,68,0.0,7.0,51,0.00,,,0.00,0000,Weather View 32 v70,2013-03-09 22:45:00,
2013-03-09 17:50:00,41.0,24.7,30.24,NE,45,0.0,7.0,52,0.00,,,0.00,0000,Weather View 32 v70,2013-03-09 22:50:00,
2013-03-09 18:00:00,40.4,25.0,30.26,NNE,23,1.0,7.0,54,0.00,,,0.00,0000,Weather View 32 v70,2013-03-09 23:00:00,
2013-03-09 18:05:00,40.1,25.2,30.26,NNE,23,0.0,13.0,55,0.00,,,0.00,0000,Weather View 32 v70,2013-03-09 23:05:00,
2013-03-09 18:10:00,39.6,24.7,30.26,East,90,1.0,13.0,55,0.00,,,0.00,0008,Weather View 32 v70,2013-03-09 23:10:00,
2013-03-09 18:20:00,38.9,24.9,30.26,ESE,113,0.0,13.0,57,0.00,,,0.00,0008,Weather View 32 v70,2013-03-09 23:20:00,
2013-03-09 18:25:00,38.4,24.9,30.26,NNE,23,0.0,13.0,58,0.00,,,0.00,0000,Weather View 32 v70,2013-03-09 23:25:00,
2013-03-09 18:35:00,37.9,25.2,30.26,NNE,23,0.0,13.0,60,0.00,,,0.00,0000,Weather View 32 v70,2013-03-09 23:35:00,
2013-03-09 18:40:00,37.5,25.3,30.26,North,0,0.0,13.0,61,0.00,,,0.00,0008,Weather View 32 v70,2013-03-09 23:40:00,
2013-03-09 18:45:00,37.4,26.0,30.27,NNE,23,0.0,13.0,63,0.00,,,0.00,0000,Weather View 32 v70,2013-03-09 23:45:00,
2013-03-09 18:50:00,37.2,25.8,30.27,NE,45,0.0,13.0,63,0.00,,,0.00,0008,Weather View 32 v70,2013-03-09 23:50:00,
2013-03-09 18:55:00,36.9,25.8,30.27,NNW,338,0.0,13.0,64,0.00,,,0.00,0000,Weather View 32 v70,2013-03-09 23:55:00,
2013-03-09 19:05:00,36.4,26.1,30.27,NE,45,0.0,13.0,66,0.00,,,0.00,0008,Weather View 32 v70,2013-03-10 00:05:00,
2013-03-09 19:10:00,36.2,26.3,30.27,NNE,23,0.0,10.0,67,0.00,,,0.00,0008,Weather View 32 v70,2013-03-10 00:10:00,
2013-03-09 19:20:00,35.5,26.0,30.28,NNE,23,0.0,10.0,68,0.00,,,0.00,0008,Weather View 32 v70,2013-03-10 00:20:00,
2013-03-09 19:25:00,35.3,26.1,30.27,NNE,23,0.0,7.0,69,0.00,,,0.00,0000,Weather View 32 v70,2013-03-10 00:25:00,
2013-03-09 19:35:00,35.0,26.2,30.28,NNE,23,0.0,7.0,70,0.00,,,0.00,0000,Weather View 32 v70,2013-03-10 00:35:00,
2013-03-09 19:40:00,34.7,25.9,30.28,North,0,0.0,7.0,70,0.00,,,0.00,0000,Weather View 32 v70,2013-03-10 00:40:00,
2013-03-09 19:50:00,34.3,26.2,30.29,North,0,0.0,4.0,72,0.00,,,0.00,0000,Weather View 32 v70,2013-03-10 00:50:00,
2013-03-09 19:55:00,33.8,25.7,30.29,North,0,0.0,4.0,72,0.00,,,0.00,0000,Weather View 32 v70,2013-03-10 00:55:00,
2013-03-09 20:05:00,33.3,25.5,30.29,North,0,0.0,3.0,73,0.00,,,0.00,0000,Weather View 32 v70,2013-03-10 01:05:00,
2013-03-09 20:15:00,32.6,24.9,30.29,North,0,0.0,3.0,73,0.00,,,0.00,0008,Weather View 32 v70,2013-03-10 01:15:00,
2013-03-09 20:20:00,32.4,24.7,30.29,NNE,23,0.0,2.0,73,0.00,,,0.00,0000,Weather View 32 v70,2013-03-10 01:20:00,
2013-03-09 20:26:00,32.3,24.9,30.29,NNW,338,0.0,2.0,74,0.00,,,0.00,0000,Weather View 32 v70,2013-03-10 01:26:00,
2013-03-09 20:35:00,32.0,24.7,30.29,NNW,338,0.0,3.0,74,0.00,,,0.00,0000,Weather View 32 v70,2013-03-10 01:35:00,
2013-03-09 20:40:00,32.0,25.0,30.29,North,0,0.0,3.0,75,0.00,,,0.00,0000,Weather View 32 v70,2013-03-10 01:40:00,
2013-03-09 20:45:00,32.1,25.1,30.29,North,0,0.0,3.0,75,0.00,,,0.00,0000,Weather View 32 v70,2013-03-10 01:45:00,
2013-03-09 20:50:00,32.1,25.1,30.30,NNW,338,0.0,3.0,75,0.00,,,0.00,0000,Weather View 32 v70,2013-03-10 01:50:00,
2013-03-09 20:55:00,31.9,24.9,30.30,NNW,338,0.0,3.0,75,0.00,,,0.00,0000,Weather View 32 v70,2013-03-10 01:55:00,
2013-03-09 21:05:00,31.6,24.6,30.30,NNW,338,0.0,3.0,75,0.00,,,0.00,0000,Weather View 32 v70,2013-03-10 02:05:00,
2013-03-09 21:10:00,31.2,24.2,30.30,NNE,23,0.0,3.0,75,0.00,,,0.00,0008,Weather View 32 v70,2013-03-10 02:10:00,
2013-03-09 21:15:00,31.0,24.3,30.30,North,0,0.0,3.0,76,0.00,,,0.00,0000,Weather View 32 v70,2013-03-10 02:15:00,
2013-03-09 21:20:00,31.0,24.3,30.30,North,0,0.0,3.0,76,0.00,,,0.00,0000,Weather View 32 v70,2013-03-10 02:20:00,
2013-03-09 21:27:00,30.9,24.2,30.30,North,0,0.0,3.0,76,0.00,,,0.00,0008,Weather View 32 v70,2013-03-10 02:27:00,
2013-03-09 21:35:00,30.2,23.6,30.30,NNE,23,0.0,2.0,76,0.00,,,0.00,0000,Weather View 32 v70,2013-03-10 02:35:00,
2013-03-09 21:40:00,30.2,23.9,30.30,NNW,338,0.0,2.0,77,0.00,,,0.00,0008,Weather View 32 v70,2013-03-10 02:40:00,
2013-03-09 21:45:00,30.1,23.8,30.30,North,0,0.0,2.0,77,0.00,,,0.00,0000,Weather View 32 v70,2013-03-10 02:45:00,
2013-03-09 21:50:00,30.1,24.1,30.30,North,0,0.0,2.0,78,0.00,,,0.00,0008,Weather View 32 v70,2013-03-10 02:50:00,
2013-03-09 22:00:00,29.9,23.9,30.30,NNE,23,0.0,2.0,78,0.00,,,0.00,0000,Weather View 32 v70,2013-03-10 03:00:00,
2013-03-09 22:10:00,29.7,23.7,30.30,ENE,68,0.0,2.0,78,0.00,,,0.00,0000,Weather View 32 v70,2013-03-10 03:10:00,
2013-03-09 22:20:00,29.6,23.8,30.29,NE,45,0.0,4.0,79,0.00,,,0.00,0000,Weather View 32 v70,2013-03-10 03:20:00,
2013-03-09 22:27:00,29.4,23.7,30.29,NNE,23,0.0,4.0,79,0.00,,,0.00,0000,Weather View 32 v70,2013-03-10 03:27:00,
2013-03-09 22:35:00,29.8,24.4,30.29,North,0,0.0,7.0,80,0.00,,,0.00,0000,Weather View 32 v70,2013-03-10 03:35:00,
2013-03-09 22:40:00,30.0,24.9,30.30,NNW,338,0.0,7.0,81,0.00,,,0.00,0000,Weather View 32 v70,2013-03-10 03:40:00,
2013-03-09 22:45:00,30.0,24.9,30.30,North,0,0.0,7.0,81,0.00,,,0.00,0000,Weather View 32 v70,2013-03-10 03:45:00,
2013-03-09 22:50:00,29.7,24.3,30.30,North,0,0.0,7.0,80,0.00,,,0.00,0000,Weather View 32 v70,2013-03-10 03:50:00,
2013-03-09 22:55:00,29.4,24.0,30.30,North,0,0.0,7.0,80,0.00,,,0.00,0000,Weather View 32 v70,2013-03-10 03:55:00,
2013-03-09 23:00:00,29.3,23.9,30.30,North,0,0.0,7.0,80,0.00,,,0.00,0000,Weather View 32 v70,2013-03-10 04:00:00,
2013-03-09 23:05:00,29.2,24.1,30.30,NNW,338,0.0,7.0,81,0.00,,,0.00,0008,Weather View 32 v70,2013-03-10 04:05:00,
2013-03-09 23:15:00,29.0,23.9,30.30,NNW,338,0.0,7.0,81,0.00,,,0.00,0000,Weather View 32 v70,2013-03-10 04:15:00,
2013-03-09 23:20:00,28.9,23.8,30.31,NNW,338,0.0,7.0,81,0.00,,,0.00,0000,Weather View 32 v70,2013-03-10 04:20:00,
2013-03-09 23:28:00,28.8,23.7,30.31,NNW,338,0.0,7.0,81,0.00,,,0.00,0000,Weather View 32 v70,2013-03-10 04:28:00,
2013-03-09 23:35:00,28.7,23.9,30.30,NNW,338,0.0,0.0,82,0.00,,,0.00,0000,Weather View 32 v70,2013-03-10 04:35:00,
2013-03-09 23:40:00,28.5,23.7,30.31,North,0,0.0,0.0,82,0.00,,,0.00,0000,Weather View 32 v70,2013-03-10 04:40:00,
2013-03-09 23:45:00,28.5,23.7,30.31,NW,315,0.0,0.0,82,0.00,,,0.00,0000,Weather View 32 v70,2013-03-10 04:45:00,
2013-03-09 23:50:00,28.4,23.6,30.32,NW,315,0.0,0.0,82,0.00,,,0.00,0000,Weather View 32 v70,2013-03-10 04:50:00,